Terminal Aerodrome Forecast
Issued by NWS

Home | Current Version | Previous Version | Text Only | Print | Product List | Glossary On
Versions: 1 2 3 4 5 6 7 8 9 10 11 12 13
142
FTUS43 KIWX 281125
TAFSBN
TAF
KSBN 281125Z 2812/2912 19006KT P6SM SCT120
     FM282000 18006KT P6SM VCSH OVC060
     FM282200 14010KT P6SM VCSH OVC040
      TEMPO 2900/2904 6SM -SHRA OVC020
     FM290600 04006KT P6SM OVC015=

USA.gov is the U.S. government's official web portal to all federal, state and local government web resources and services.